
<gpx xmlns="http://www.topografix.com/GPX/1/1" xmlns:gpxx="http://www.garmin.com/xmlschemas/GpxExtensions/v3" xmlns:wptx1="http://www.garmin.com/xmlschemas/WaypointExtension/v1" xmlns:xsi="http://www.w3.org/2001/XMLSchema-instance" version="1.1" creator="Adze - https://getadze.com/" xsi:schemaLocation="http://www.topografix.com/GPX/1/1 http://www.topografix.com/GPX/1/1/gpx.xsd http://www.garmin.com/xmlschemas/GpxExtensions/v3 http://www8.garmin.com/xmlschemas/GpxExtensionsv3.xsd http://www.garmin.com/xmlschemas/WaypointExtension/v1 http://www8.garmin.com/xmlschemas/WaypointExtensionv1.xsd">
    <metadata>
        <name>Untitled Document</name>
        <link href="http://www.garmin.com"></link>
        <time>2018-03-05T08:16:24.842Z</time>
    </metadata>
    <wpt lon="99.680640" lat="12.899979">
        <ele>91.000000</ele>
        <name>Kaeng Krachan</name>
        <sym>Waypoint</sym>
        <type>user</type>
        <extensions>
            <gpxx:WaypointExtension>
                <gpxx:DisplayMode>SymbolAndName</gpxx:DisplayMode>
            </gpxx:WaypointExtension>
            <wptx1:WaypointExtension>
                <wptx1:DisplayMode>SymbolAndName</wptx1:DisplayMode>
            </wptx1:WaypointExtension>
        </extensions>
    </wpt>
    <trk>
        <name>February 2006 - Sunday</name>
        <extensions>
            <gpxx:TrackExtension>
                <gpxx:DisplayColor>DarkGray</gpxx:DisplayColor>
            </gpxx:TrackExtension>
        </extensions>
        <trkseg>
            <trkpt lon="99.680521" lat="12.900095">
                <ele>86.656006</ele>
                <time>2006-02-26T03:27:02Z</time>
            </trkpt>
            <trkpt lon="99.680543" lat="12.900052">
                <ele>89.059326</ele>
                <time>2006-02-26T03:35:19Z</time>
            </trkpt>
            <trkpt lon="99.680285" lat="12.899945">
                <ele>90.981934</ele>
                <time>2006-02-26T03:35:31Z</time>
            </trkpt>
            <trkpt lon="99.680157" lat="12.900074">
                <ele>93.385132</ele>
                <time>2006-02-26T03:35:37Z</time>
            </trkpt>
            <trkpt lon="99.680007" lat="12.900395">
                <ele>96.269287</ele>
                <time>2006-02-26T03:35:52Z</time>
            </trkpt>
            <trkpt lon="99.679792" lat="12.900846">
                <ele>100.595093</ele>
                <time>2006-02-26T03:36:11Z</time>
            </trkpt>
            <trkpt lon="99.679685" lat="12.901361">
                <ele>101.556396</ele>
                <time>2006-02-26T03:36:29Z</time>
            </trkpt>
            <trkpt lon="99.679770" lat="12.901425">
                <ele>100.595093</ele>
                <time>2006-02-26T03:36:32Z</time>
            </trkpt>
            <trkpt lon="99.679964" lat="12.901511">
                <ele>100.114502</ele>
                <time>2006-02-26T03:36:37Z</time>
            </trkpt>
            <trkpt lon="99.680092" lat="12.901511">
                <ele>100.114502</ele>
                <time>2006-02-26T03:36:40Z</time>
            </trkpt>
            <trkpt lon="99.680221" lat="12.901597">
                <ele>100.595093</ele>
                <time>2006-02-26T03:36:44Z</time>
            </trkpt>
            <trkpt lon="99.680328" lat="12.901812">
                <ele>98.672485</ele>
                <time>2006-02-26T03:36:51Z</time>
            </trkpt>
            <trkpt lon="99.680350" lat="12.901940">
                <ele>98.191895</ele>
                <time>2006-02-26T03:36:54Z</time>
            </trkpt>
            <trkpt lon="99.680028" lat="12.902584">
                <ele>99.633789</ele>
                <time>2006-02-26T03:37:05Z</time>
            </trkpt>
            <trkpt lon="99.679728" lat="12.903056">
                <ele>99.633789</ele>
                <time>2006-02-26T03:37:12Z</time>
            </trkpt>
            <trkpt lon="99.679642" lat="12.903228">
                <ele>100.595093</ele>
                <time>2006-02-26T03:37:16Z</time>
            </trkpt>
            <trkpt lon="99.679599" lat="12.903399">
                <ele>101.075684</ele>
                <time>2006-02-26T03:37:19Z</time>
            </trkpt>
            <trkpt lon="99.679577" lat="12.903507">
                <ele>100.595093</ele>
                <time>2006-02-26T03:37:21Z</time>
            </trkpt>
            <trkpt lon="99.679792" lat="12.903786">
                <ele>97.711182</ele>
                <time>2006-02-26T03:37:28Z</time>
            </trkpt>
            <trkpt lon="99.679813" lat="12.904022">
                <ele>97.230469</ele>
                <time>2006-02-26T03:37:36Z</time>
            </trkpt>
            <trkpt lon="99.679813" lat="12.904086">
                <ele>97.711182</ele>
                <time>2006-02-26T03:37:37Z</time>
            </trkpt>
            <trkpt lon="99.679813" lat="12.904387">
                <ele>97.711182</ele>
                <time>2006-02-26T03:37:42Z</time>
            </trkpt>
            <trkpt lon="99.679792" lat="12.904558">
                <ele>97.711182</ele>
                <time>2006-02-26T03:37:47Z</time>
            </trkpt>
            <trkpt lon="99.679835" lat="12.904644">
                <ele>97.711182</ele>
                <time>2006-02-26T03:37:52Z</time>
            </trkpt>
            <trkpt lon="99.679921" lat="12.905352">
                <ele>97.711182</ele>
                <time>2006-02-26T03:38:10Z</time>
            </trkpt>
            <trkpt lon="99.680028" lat="12.906017">
                <ele>95.788452</ele>
                <time>2006-02-26T03:38:27Z</time>
            </trkpt>
            <trkpt lon="99.680049" lat="12.906339">
                <ele>95.307739</ele>
                <time>2006-02-26T03:38:37Z</time>
            </trkpt>
            <trkpt lon="99.680264" lat="12.906811">
                <ele>94.346558</ele>
                <time>2006-02-26T03:38:53Z</time>
            </trkpt>
            <trkpt lon="99.680715" lat="12.907026">
                <ele>93.865845</ele>
                <time>2006-02-26T03:39:06Z</time>
            </trkpt>
            <trkpt lon="99.680994" lat="12.907155">
                <ele>94.827148</ele>
                <time>2006-02-26T03:39:14Z</time>
            </trkpt>
            <trkpt lon="99.681208" lat="12.907283">
                <ele>94.827148</ele>
                <time>2006-02-26T03:39:20Z</time>
            </trkpt>
            <trkpt lon="99.681551" lat="12.907519">
                <ele>94.827148</ele>
                <time>2006-02-26T03:39:31Z</time>
            </trkpt>
            <trkpt lon="99.681315" lat="12.907670">
                <ele>98.191895</ele>
                <time>2006-02-26T03:39:42Z</time>
            </trkpt>
            <trkpt lon="99.681294" lat="12.908142">
                <ele>99.153076</ele>
                <time>2006-02-26T03:40:03Z</time>
            </trkpt>
            <trkpt lon="99.681401" lat="12.908227">
                <ele>99.633789</ele>
                <time>2006-02-26T03:40:09Z</time>
            </trkpt>
            <trkpt lon="99.681315" lat="12.908485">
                <ele>102.037109</ele>
                <time>2006-02-26T03:40:19Z</time>
            </trkpt>
            <trkpt lon="99.681358" lat="12.908871">
                <ele>102.517700</ele>
                <time>2006-02-26T03:40:32Z</time>
            </trkpt>
            <trkpt lon="99.681745" lat="12.909129">
                <ele>100.595093</ele>
                <time>2006-02-26T03:40:44Z</time>
            </trkpt>
            <trkpt lon="99.682174" lat="12.909343">
                <ele>99.153076</ele>
                <time>2006-02-26T03:40:52Z</time>
            </trkpt>
            <trkpt lon="99.682260" lat="12.909622">
                <ele>100.114502</ele>
                <time>2006-02-26T03:41:00Z</time>
            </trkpt>
            <trkpt lon="99.682195" lat="12.909644">
                <ele>100.114502</ele>
                <time>2006-02-26T03:41:02Z</time>
            </trkpt>
            <trkpt lon="99.681895" lat="12.909601">
                <ele>103.479004</ele>
                <time>2006-02-26T03:41:14Z</time>
            </trkpt>
            <trkpt lon="99.681745" lat="12.910116">
                <ele>104.921021</ele>
                <time>2006-02-26T03:41:28Z</time>
            </trkpt>
            <trkpt lon="99.681680" lat="12.910502">
                <ele>105.882446</ele>
                <time>2006-02-26T03:41:37Z</time>
            </trkpt>
            <trkpt lon="99.681616" lat="12.910824">
                <ele>105.882446</ele>
                <time>2006-02-26T03:41:43Z</time>
            </trkpt>
            <trkpt lon="99.681401" lat="12.910995">
                <ele>102.517700</ele>
                <time>2006-02-26T03:41:47Z</time>
            </trkpt>
            <trkpt lon="99.681187" lat="12.911038">
                <ele>102.517700</ele>
                <time>2006-02-26T03:41:50Z</time>
            </trkpt>
            <trkpt lon="99.680758" lat="12.911124">
                <ele>103.959717</ele>
                <time>2006-02-26T03:41:57Z</time>
            </trkpt>
            <trkpt lon="99.680543" lat="12.911403">
                <ele>101.075684</ele>
                <time>2006-02-26T03:42:03Z</time>
            </trkpt>
            <trkpt lon="99.680564" lat="12.912884">
                <ele>94.827148</ele>
                <time>2006-02-26T03:42:21Z</time>
            </trkpt>
            <trkpt lon="99.680564" lat="12.913442">
                <ele>94.827148</ele>
                <time>2006-02-26T03:42:28Z</time>
            </trkpt>
            <trkpt lon="99.680414" lat="12.913635">
                <ele>94.827148</ele>
                <time>2006-02-26T03:42:32Z</time>
            </trkpt>
            <trkpt lon="99.680285" lat="12.913957">
                <ele>93.385132</ele>
                <time>2006-02-26T03:42:38Z</time>
            </trkpt>
            <trkpt lon="99.680350" lat="12.914193">
                <ele>93.385132</ele>
                <time>2006-02-26T03:42:43Z</time>
            </trkpt>
            <trkpt lon="99.680285" lat="12.914536">
                <ele>92.423950</ele>
                <time>2006-02-26T03:42:50Z</time>
            </trkpt>
            <trkpt lon="99.680736" lat="12.915823">
                <ele>86.656006</ele>
                <time>2006-02-26T03:43:16Z</time>
            </trkpt>
            <trkpt lon="99.680758" lat="12.916124">
                <ele>86.175293</ele>
                <time>2006-02-26T03:43:22Z</time>
            </trkpt>
            <trkpt lon="99.680715" lat="12.916210">
                <ele>85.694580</ele>
                <time>2006-02-26T03:43:24Z</time>
            </trkpt>
            <trkpt lon="99.680607" lat="12.916274">
                <ele>85.213989</ele>
                <time>2006-02-26T03:43:27Z</time>
            </trkpt>
            <trkpt lon="99.680436" lat="12.916296">
                <ele>84.733398</ele>
                <time>2006-02-26T03:43:30Z</time>
            </trkpt>
            <trkpt lon="99.679384" lat="12.916381">
                <ele>80.888184</ele>
                <time>2006-02-26T03:43:48Z</time>
            </trkpt>
            <trkpt lon="99.679277" lat="12.916553">
                <ele>78.965454</ele>
                <time>2006-02-26T03:43:52Z</time>
            </trkpt>
            <trkpt lon="99.679213" lat="12.917433">
                <ele>78.004028</ele>
                <time>2006-02-26T03:44:09Z</time>
            </trkpt>
            <trkpt lon="99.678891" lat="12.918227">
                <ele>78.965454</ele>
                <time>2006-02-26T03:44:30Z</time>
            </trkpt>
            <trkpt lon="99.678590" lat="12.919493">
                <ele>83.291382</ele>
                <time>2006-02-26T03:44:57Z</time>
            </trkpt>
            <trkpt lon="99.678268" lat="12.920330">
                <ele>87.136597</ele>
                <time>2006-02-26T03:45:14Z</time>
            </trkpt>
            <trkpt lon="99.678333" lat="12.920501">
                <ele>87.617188</ele>
                <time>2006-02-26T03:45:19Z</time>
            </trkpt>
            <trkpt lon="99.678741" lat="12.920673">
                <ele>88.578735</ele>
                <time>2006-02-26T03:45:29Z</time>
            </trkpt>
            <trkpt lon="99.678891" lat="12.920523">
                <ele>88.578735</ele>
                <time>2006-02-26T03:45:35Z</time>
            </trkpt>
            <trkpt lon="99.678955" lat="12.920458">
                <ele>88.098022</ele>
                <time>2006-02-26T03:45:37Z</time>
            </trkpt>
            <trkpt lon="99.678998" lat="12.920330">
                <ele>87.136597</ele>
                <time>2006-02-26T03:45:41Z</time>
            </trkpt>
            <trkpt lon="99.678977" lat="12.920265">
                <ele>88.098022</ele>
                <time>2006-02-26T03:45:53Z</time>
            </trkpt>
            <trkpt lon="99.678977" lat="12.920265">
                <ele>88.098022</ele>
                <time>2006-02-26T03:45:58Z</time>
            </trkpt>
            <trkpt lon="99.678998" lat="12.920394">
                <ele>90.020630</ele>
                <time>2006-02-26T03:46:10Z</time>
            </trkpt>
            <trkpt lon="99.678977" lat="12.920372">
                <ele>90.981934</ele>
                <time>2006-02-26T03:46:18Z</time>
            </trkpt>
            <trkpt lon="99.678998" lat="12.920308">
                <ele>90.020630</ele>
                <time>2006-02-26T03:46:31Z</time>
            </trkpt>
            <trkpt lon="99.678977" lat="12.920136">
                <ele>90.020630</ele>
                <time>2006-02-26T03:46:46Z</time>
            </trkpt>
            <trkpt lon="99.679041" lat="12.919965">
                <ele>89.539917</ele>
                <time>2006-02-26T03:46:53Z</time>
            </trkpt>
            <trkpt lon="99.679019" lat="12.919900">
                <ele>89.539917</ele>
                <time>2006-02-26T03:46:55Z</time>
            </trkpt>
            <trkpt lon="99.678998" lat="12.919815">
                <ele>90.020630</ele>
                <time>2006-02-26T03:47:00Z</time>
            </trkpt>
            <trkpt lon="99.679277" lat="12.919686">
                <ele>89.059326</ele>
                <time>2006-02-26T03:47:12Z</time>
            </trkpt>
            <trkpt lon="99.679685" lat="12.919493">
                <ele>89.059326</ele>
                <time>2006-02-26T03:47:25Z</time>
            </trkpt>
            <trkpt lon="99.679792" lat="12.919300">
                <ele>90.501343</ele>
                <time>2006-02-26T03:47:37Z</time>
            </trkpt>
            <trkpt lon="99.679964" lat="12.919257">
                <ele>90.501343</ele>
                <time>2006-02-26T03:47:48Z</time>
            </trkpt>
            <trkpt lon="99.680028" lat="12.919278">
                <ele>89.059326</ele>
                <time>2006-02-26T03:48:00Z</time>
            </trkpt>
            <trkpt lon="99.680178" lat="12.919407">
                <ele>90.501343</ele>
                <time>2006-02-26T03:48:14Z</time>
            </trkpt>
            <trkpt lon="99.680243" lat="12.919450">
                <ele>90.981934</ele>
                <time>2006-02-26T03:48:27Z</time>
            </trkpt>
            <trkpt lon="99.680221" lat="12.919450">
                <ele>91.943237</ele>
                <time>2006-02-26T03:48:34Z</time>
            </trkpt>
            <trkpt lon="99.679985" lat="12.919257">
                <ele>91.462524</ele>
                <time>2006-02-26T03:48:47Z</time>
            </trkpt>
            <trkpt lon="99.679921" lat="12.919257">
                <ele>90.981934</ele>
                <time>2006-02-26T03:48:52Z</time>
            </trkpt>
            <trkpt lon="99.679813" lat="12.919343">
                <ele>91.462524</ele>
                <time>2006-02-26T03:49:06Z</time>
            </trkpt>
            <trkpt lon="99.679642" lat="12.919579">
                <ele>92.423950</ele>
                <time>2006-02-26T03:49:15Z</time>
            </trkpt>
            <trkpt lon="99.678977" lat="12.919621">
                <ele>90.501343</ele>
                <time>2006-02-26T03:49:29Z</time>
            </trkpt>
            <trkpt lon="99.678590" lat="12.919493">
                <ele>90.501343</ele>
                <time>2006-02-26T03:49:38Z</time>
            </trkpt>
            <trkpt lon="99.678483" lat="12.919579">
                <ele>90.981934</ele>
                <time>2006-02-26T03:49:42Z</time>
            </trkpt>
            <trkpt lon="99.678268" lat="12.920008">
                <ele>92.423950</ele>
                <time>2006-02-26T03:49:57Z</time>
            </trkpt>
            <trkpt lon="99.678075" lat="12.920609">
                <ele>92.904541</ele>
                <time>2006-02-26T03:50:13Z</time>
            </trkpt>
            <trkpt lon="99.677668" lat="12.921166">
                <ele>95.307739</ele>
                <time>2006-02-26T03:50:32Z</time>
            </trkpt>
            <trkpt lon="99.677067" lat="12.921531">
                <ele>95.307739</ele>
                <time>2006-02-26T03:50:54Z</time>
            </trkpt>
            <trkpt lon="99.676530" lat="12.921767">
                <ele>98.672485</ele>
                <time>2006-02-26T03:51:13Z</time>
            </trkpt>
            <trkpt lon="99.676058" lat="12.921896">
                <ele>101.556396</ele>
                <time>2006-02-26T03:51:30Z</time>
            </trkpt>
            <trkpt lon="99.675479" lat="12.922025">
                <ele>100.595093</ele>
                <time>2006-02-26T03:51:52Z</time>
            </trkpt>
            <trkpt lon="99.674835" lat="12.922325">
                <ele>102.037109</ele>
                <time>2006-02-26T03:52:18Z</time>
            </trkpt>
            <trkpt lon="99.674256" lat="12.922797">
                <ele>109.246948</ele>
                <time>2006-02-26T03:52:43Z</time>
            </trkpt>
            <trkpt lon="99.673634" lat="12.923398">
                <ele>115.014893</ele>
                <time>2006-02-26T03:53:08Z</time>
            </trkpt>
            <trkpt lon="99.673204" lat="12.923892">
                <ele>115.976196</ele>
                <time>2006-02-26T03:53:27Z</time>
            </trkpt>
            <trkpt lon="99.672582" lat="12.924514">
                <ele>113.092285</ele>
                <time>2006-02-26T03:53:49Z</time>
            </trkpt>
            <trkpt lon="99.672196" lat="12.924900">
                <ele>114.534180</ele>
                <time>2006-02-26T03:54:05Z</time>
            </trkpt>
            <trkpt lon="99.671702" lat="12.925265">
                <ele>112.611572</ele>
                <time>2006-02-26T03:54:19Z</time>
            </trkpt>
            <trkpt lon="99.671617" lat="12.925308">
                <ele>112.611572</ele>
                <time>2006-02-26T03:54:21Z</time>
            </trkpt>
            <trkpt lon="99.671574" lat="12.925372">
                <ele>112.611572</ele>
                <time>2006-02-26T03:54:23Z</time>
            </trkpt>
            <trkpt lon="99.671617" lat="12.925737">
                <ele>112.611572</ele>
                <time>2006-02-26T03:54:30Z</time>
            </trkpt>
            <trkpt lon="99.671574" lat="12.925844">
                <ele>111.169556</ele>
                <time>2006-02-26T03:54:34Z</time>
            </trkpt>
            <trkpt lon="99.671166" lat="12.926080">
                <ele>110.688843</ele>
                <time>2006-02-26T03:54:46Z</time>
            </trkpt>
            <trkpt lon="99.670565" lat="12.926230">
                <ele>113.092285</ele>
                <time>2006-02-26T03:55:02Z</time>
            </trkpt>
            <trkpt lon="99.670265" lat="12.926295">
                <ele>113.092285</ele>
                <time>2006-02-26T03:55:11Z</time>
            </trkpt>
            <trkpt lon="99.670243" lat="12.926252">
                <ele>113.092285</ele>
                <time>2006-02-26T03:55:13Z</time>
            </trkpt>
            <trkpt lon="99.670222" lat="12.926188">
                <ele>113.092285</ele>
                <time>2006-02-26T03:55:17Z</time>
            </trkpt>
            <trkpt lon="99.669964" lat="12.925994">
                <ele>112.130981</ele>
                <time>2006-02-26T03:55:39Z</time>
            </trkpt>
            <trkpt lon="99.669728" lat="12.925951">
                <ele>114.053589</ele>
                <time>2006-02-26T03:55:55Z</time>
            </trkpt>
            <trkpt lon="99.669321" lat="12.925737">
                <ele>114.053589</ele>
                <time>2006-02-26T03:56:14Z</time>
            </trkpt>
            <trkpt lon="99.669042" lat="12.925522">
                <ele>121.263550</ele>
                <time>2006-02-26T03:56:37Z</time>
            </trkpt>
            <trkpt lon="99.668720" lat="12.925372">
                <ele>122.705444</ele>
                <time>2006-02-26T03:56:54Z</time>
            </trkpt>
            <trkpt lon="99.668398" lat="12.924986">
                <ele>122.224731</ele>
                <time>2006-02-26T03:57:14Z</time>
            </trkpt>
            <trkpt lon="99.668334" lat="12.924964">
                <ele>122.224731</ele>
                <time>2006-02-26T03:57:16Z</time>
            </trkpt>
            <trkpt lon="99.668033" lat="12.925158">
                <ele>120.782837</ele>
                <time>2006-02-26T03:57:27Z</time>
            </trkpt>
            <trkpt lon="99.668012" lat="12.925265">
                <ele>121.263550</ele>
                <time>2006-02-26T03:57:30Z</time>
            </trkpt>
            <trkpt lon="99.668140" lat="12.925608">
                <ele>119.821411</ele>
                <time>2006-02-26T03:57:42Z</time>
            </trkpt>
            <trkpt lon="99.668269" lat="12.925973">
                <ele>117.418213</ele>
                <time>2006-02-26T03:57:51Z</time>
            </trkpt>
            <trkpt lon="99.668334" lat="12.926080">
                <ele>116.937500</ele>
                <time>2006-02-26T03:57:54Z</time>
            </trkpt>
            <trkpt lon="99.668441" lat="12.926273">
                <ele>114.534180</ele>
                <time>2006-02-26T03:57:58Z</time>
            </trkpt>
            <trkpt lon="99.668548" lat="12.926681">
                <ele>114.534180</ele>
                <time>2006-02-26T03:58:07Z</time>
            </trkpt>
            <trkpt lon="99.668076" lat="12.927196">
                <ele>115.495605</ele>
                <time>2006-02-26T03:58:23Z</time>
            </trkpt>
            <trkpt lon="99.667926" lat="12.927368">
                <ele>115.014893</ele>
                <time>2006-02-26T03:58:29Z</time>
            </trkpt>
            <trkpt lon="99.667797" lat="12.927454">
                <ele>115.014893</ele>
                <time>2006-02-26T03:58:32Z</time>
            </trkpt>
            <trkpt lon="99.667432" lat="12.927561">
                <ele>115.014893</ele>
                <time>2006-02-26T03:58:42Z</time>
            </trkpt>
            <trkpt lon="99.667368" lat="12.927582">
                <ele>114.534180</ele>
                <time>2006-02-26T03:58:44Z</time>
            </trkpt>
            <trkpt lon="99.667304" lat="12.927582">
                <ele>114.053589</ele>
                <time>2006-02-26T03:58:47Z</time>
            </trkpt>
            <trkpt lon="99.666789" lat="12.927604">
                <ele>116.456787</ele>
                <time>2006-02-26T03:59:10Z</time>
            </trkpt>
            <trkpt lon="99.666338" lat="12.927754">
                <ele>120.302124</ele>
                <time>2006-02-26T03:59:30Z</time>
            </trkpt>
            <trkpt lon="99.665737" lat="12.928033">
                <ele>119.340820</ele>
                <time>2006-02-26T03:59:52Z</time>
            </trkpt>
            <trkpt lon="99.664986" lat="12.928612">
                <ele>121.263550</ele>
                <time>2006-02-26T04:00:12Z</time>
            </trkpt>
            <trkpt lon="99.664664" lat="12.928677">
                <ele>122.224731</ele>
                <time>2006-02-26T04:00:24Z</time>
            </trkpt>
            <trkpt lon="99.664493" lat="12.928677">
                <ele>119.340820</ele>
                <time>2006-02-26T04:00:34Z</time>
            </trkpt>
            <trkpt lon="99.664407" lat="12.928548">
                <ele>125.589355</ele>
                <time>2006-02-26T04:00:47Z</time>
            </trkpt>
            <trkpt lon="99.664407" lat="12.928526">
                <ele>127.992554</ele>
                <time>2006-02-26T04:01:05Z</time>
            </trkpt>
            <trkpt lon="99.664364" lat="12.928505">
                <ele>127.992554</ele>
                <time>2006-02-26T04:01:09Z</time>
            </trkpt>
            <trkpt lon="99.663913" lat="12.928076">
                <ele>123.186157</ele>
                <time>2006-02-26T04:01:26Z</time>
            </trkpt>
            <trkpt lon="99.662883" lat="12.927067">
                <ele>120.302124</ele>
                <time>2006-02-26T04:01:55Z</time>
            </trkpt>
            <trkpt lon="99.662476" lat="12.926402">
                <ele>115.014893</ele>
                <time>2006-02-26T04:02:07Z</time>
            </trkpt>
            <trkpt lon="99.662197" lat="12.926123">
                <ele>113.092285</ele>
                <time>2006-02-26T04:02:11Z</time>
            </trkpt>
            <trkpt lon="99.661939" lat="12.925673">
                <ele>113.092285</ele>
                <time>2006-02-26T04:02:19Z</time>
            </trkpt>
            <trkpt lon="99.661853" lat="12.925651">
                <ele>113.092285</ele>
                <time>2006-02-26T04:02:23Z</time>
            </trkpt>
            <trkpt lon="99.661295" lat="12.925801">
                <ele>115.014893</ele>
                <time>2006-02-26T04:02:39Z</time>
            </trkpt>
            <trkpt lon="99.660952" lat="12.925715">
                <ele>114.053589</ele>
                <time>2006-02-26T04:02:54Z</time>
            </trkpt>
            <trkpt lon="99.660716" lat="12.925587">
                <ele>113.572998</ele>
                <time>2006-02-26T04:03:00Z</time>
            </trkpt>
            <trkpt lon="99.660501" lat="12.925351">
                <ele>112.611572</ele>
                <time>2006-02-26T04:03:08Z</time>
            </trkpt>
            <trkpt lon="99.660351" lat="12.924728">
                <ele>112.611572</ele>
                <time>2006-02-26T04:03:20Z</time>
            </trkpt>
            <trkpt lon="99.660308" lat="12.924514">
                <ele>113.092285</ele>
                <time>2006-02-26T04:03:28Z</time>
            </trkpt>
            <trkpt lon="99.660201" lat="12.924471">
                <ele>113.572998</ele>
                <time>2006-02-26T04:03:32Z</time>
            </trkpt>
            <trkpt lon="99.660223" lat="12.924321">
                <ele>114.053589</ele>
                <time>2006-02-26T04:03:38Z</time>
            </trkpt>
            <trkpt lon="99.660459" lat="12.924170">
                <ele>114.534180</ele>
                <time>2006-02-26T04:03:44Z</time>
            </trkpt>
            <trkpt lon="99.660909" lat="12.924063">
                <ele>114.053589</ele>
                <time>2006-02-26T04:03:52Z</time>
            </trkpt>
            <trkpt lon="99.661059" lat="12.923977">
                <ele>114.053589</ele>
                <time>2006-02-26T04:03:55Z</time>
            </trkpt>
            <trkpt lon="99.661596" lat="12.923698">
                <ele>110.208252</ele>
                <time>2006-02-26T04:04:04Z</time>
            </trkpt>
            <trkpt lon="99.661832" lat="12.923312">
                <ele>105.882446</ele>
                <time>2006-02-26T04:04:11Z</time>
            </trkpt>
            <trkpt lon="99.661853" lat="12.923162">
                <ele>104.921021</ele>
                <time>2006-02-26T04:04:13Z</time>
            </trkpt>
            <trkpt lon="99.661875" lat="12.923012">
                <ele>103.479004</ele>
                <time>2006-02-26T04:04:16Z</time>
            </trkpt>
            <trkpt lon="99.661939" lat="12.922454">
                <ele>99.153076</ele>
                <time>2006-02-26T04:04:25Z</time>
            </trkpt>
            <trkpt lon="99.661918" lat="12.922218">
                <ele>99.633789</ele>
                <time>2006-02-26T04:04:29Z</time>
            </trkpt>
            <trkpt lon="99.661961" lat="12.921982">
                <ele>99.153076</ele>
                <time>2006-02-26T04:04:33Z</time>
            </trkpt>
            <trkpt lon="99.662197" lat="12.921081">
                <ele>94.827148</ele>
                <time>2006-02-26T04:04:48Z</time>
            </trkpt>
            <trkpt lon="99.662197" lat="12.920909">
                <ele>94.346558</ele>
                <time>2006-02-26T04:04:51Z</time>
            </trkpt>
            <trkpt lon="99.662111" lat="12.920802">
                <ele>94.346558</ele>
                <time>2006-02-26T04:04:56Z</time>
            </trkpt>
            <trkpt lon="99.661725" lat="12.920823">
                <ele>96.749878</ele>
                <time>2006-02-26T04:05:16Z</time>
            </trkpt>
            <trkpt lon="99.661360" lat="12.920802">
                <ele>97.230469</ele>
                <time>2006-02-26T04:05:27Z</time>
            </trkpt>
            <trkpt lon="99.661188" lat="12.920930">
                <ele>99.153076</ele>
                <time>2006-02-26T04:05:40Z</time>
            </trkpt>
            <trkpt lon="99.661167" lat="12.921059">
                <ele>98.672485</ele>
                <time>2006-02-26T04:05:50Z</time>
            </trkpt>
            <trkpt lon="99.660780" lat="12.921059">
                <ele>100.114502</ele>
                <time>2006-02-26T04:06:03Z</time>
            </trkpt>
            <trkpt lon="99.660459" lat="12.921145">
                <ele>104.921021</ele>
                <time>2006-02-26T04:06:14Z</time>
            </trkpt>
            <trkpt lon="99.660373" lat="12.921381">
                <ele>108.766235</ele>
                <time>2006-02-26T04:06:30Z</time>
            </trkpt>
            <trkpt lon="99.660265" lat="12.921617">
                <ele>113.092285</ele>
                <time>2006-02-26T04:06:47Z</time>
            </trkpt>
            <trkpt lon="99.660029" lat="12.921810">
                <ele>114.053589</ele>
                <time>2006-02-26T04:07:00Z</time>
            </trkpt>
            <trkpt lon="99.659858" lat="12.921853">
                <ele>114.534180</ele>
                <time>2006-02-26T04:07:06Z</time>
            </trkpt>
            <trkpt lon="99.659858" lat="12.921596">
                <ele>114.053589</ele>
                <time>2006-02-26T04:07:13Z</time>
            </trkpt>
            <trkpt lon="99.659836" lat="12.921424">
                <ele>112.611572</ele>
                <time>2006-02-26T04:07:17Z</time>
            </trkpt>
            <trkpt lon="99.659815" lat="12.920716">
                <ele>111.169556</ele>
                <time>2006-02-26T04:07:32Z</time>
            </trkpt>
            <trkpt lon="99.659793" lat="12.920523">
                <ele>109.246948</ele>
                <time>2006-02-26T04:07:42Z</time>
            </trkpt>
            <trkpt lon="99.659793" lat="12.920415">
                <ele>110.208252</ele>
                <time>2006-02-26T04:07:55Z</time>
            </trkpt>
            <trkpt lon="99.659793" lat="12.920415">
                <ele>110.208252</ele>
                <time>2006-02-26T04:07:56Z</time>
            </trkpt>
            <trkpt lon="99.659858" lat="12.920265">
                <ele>108.285645</ele>
                <time>2006-02-26T04:08:02Z</time>
            </trkpt>
            <trkpt lon="99.659836" lat="12.920008">
                <ele>104.440430</ele>
                <time>2006-02-26T04:08:10Z</time>
            </trkpt>
            <trkpt lon="99.659708" lat="12.919858">
                <ele>103.479004</ele>
                <time>2006-02-26T04:08:14Z</time>
            </trkpt>
            <trkpt lon="99.659450" lat="12.919664">
                <ele>103.959717</ele>
                <time>2006-02-26T04:08:20Z</time>
            </trkpt>
            <trkpt lon="99.659321" lat="12.919321">
                <ele>102.998291</ele>
                <time>2006-02-26T04:08:34Z</time>
            </trkpt>
            <trkpt lon="99.659257" lat="12.919106">
                <ele>102.998291</ele>
                <time>2006-02-26T04:08:45Z</time>
            </trkpt>
            <trkpt lon="99.659257" lat="12.919106">
                <ele>102.998291</ele>
                <time>2006-02-26T04:08:46Z</time>
            </trkpt>
            <trkpt lon="99.659235" lat="12.919042">
                <ele>102.517700</ele>
                <time>2006-02-26T04:08:50Z</time>
            </trkpt>
            <trkpt lon="99.659128" lat="12.918699">
                <ele>102.037109</ele>
                <time>2006-02-26T04:09:02Z</time>
            </trkpt>
            <trkpt lon="99.659042" lat="12.918506">
                <ele>100.114502</ele>
                <time>2006-02-26T04:09:08Z</time>
            </trkpt>
            <trkpt lon="99.658549" lat="12.918355">
                <ele>99.633789</ele>
                <time>2006-02-26T04:09:20Z</time>
            </trkpt>
            <trkpt lon="99.658506" lat="12.918184">
                <ele>97.711182</ele>
                <time>2006-02-26T04:09:24Z</time>
            </trkpt>
            <trkpt lon="99.658613" lat="12.917926">
                <ele>97.711182</ele>
                <time>2006-02-26T04:09:30Z</time>
            </trkpt>
            <trkpt lon="99.658828" lat="12.917647">
                <ele>96.269287</ele>
                <time>2006-02-26T04:09:37Z</time>
            </trkpt>
            <trkpt lon="99.658935" lat="12.917540">
                <ele>96.749878</ele>
                <time>2006-02-26T04:09:40Z</time>
            </trkpt>
            <trkpt lon="99.659085" lat="12.917068">
                <ele>94.346558</ele>
                <time>2006-02-26T04:09:52Z</time>
            </trkpt>
            <trkpt lon="99.658806" lat="12.916832">
                <ele>90.981934</ele>
                <time>2006-02-26T04:10:00Z</time>
            </trkpt>
            <trkpt lon="99.658699" lat="12.916639">
                <ele>88.098022</ele>
                <time>2006-02-26T04:10:06Z</time>
            </trkpt>
            <trkpt lon="99.658570" lat="12.916467">
                <ele>83.771973</ele>
                <time>2006-02-26T04:10:19Z</time>
            </trkpt>
            <trkpt lon="99.658527" lat="12.916489">
                <ele>83.771973</ele>
                <time>2006-02-26T04:11:23Z</time>
            </trkpt>
            <trkpt lon="99.658506" lat="12.916489">
                <ele>83.771973</ele>
                <time>2006-02-26T04:11:27Z</time>
            </trkpt>
            <trkpt lon="99.658463" lat="12.916489">
                <ele>82.810791</ele>
                <time>2006-02-26T04:11:31Z</time>
            </trkpt>
            <trkpt lon="99.658034" lat="12.916574">
                <ele>80.407471</ele>
                <time>2006-02-26T04:11:46Z</time>
            </trkpt>
            <trkpt lon="99.657562" lat="12.916596">
                <ele>79.446045</ele>
                <time>2006-02-26T04:12:01Z</time>
            </trkpt>
            <trkpt lon="99.657197" lat="12.916617">
                <ele>82.330078</ele>
                <time>2006-02-26T04:12:17Z</time>
            </trkpt>
            <trkpt lon="99.656789" lat="12.916746">
                <ele>85.213989</ele>
                <time>2006-02-26T04:12:34Z</time>
            </trkpt>
            <trkpt lon="99.656596" lat="12.917047">
                <ele>86.656006</ele>
                <time>2006-02-26T04:12:50Z</time>
            </trkpt>
            <trkpt lon="99.656382" lat="12.917390">
                <ele>89.539917</ele>
                <time>2006-02-26T04:13:09Z</time>
            </trkpt>
            <trkpt lon="99.656167" lat="12.917776">
                <ele>90.981934</ele>
                <time>2006-02-26T04:13:26Z</time>
            </trkpt>
            <trkpt lon="99.656038" lat="12.918398">
                <ele>91.462524</ele>
                <time>2006-02-26T04:13:47Z</time>
            </trkpt>
            <trkpt lon="99.655931" lat="12.918806">
                <ele>93.865845</ele>
                <time>2006-02-26T04:14:05Z</time>
            </trkpt>
            <trkpt lon="99.655652" lat="12.919192">
                <ele>95.307739</ele>
                <time>2006-02-26T04:14:23Z</time>
            </trkpt>
            <trkpt lon="99.655223" lat="12.919514">
                <ele>98.191895</ele>
                <time>2006-02-26T04:14:41Z</time>
            </trkpt>
            <trkpt lon="99.654965" lat="12.919729">
                <ele>101.075684</ele>
                <time>2006-02-26T04:14:54Z</time>
            </trkpt>
            <trkpt lon="99.654880" lat="12.919750">
                <ele>102.037109</ele>
                <time>2006-02-26T04:14:58Z</time>
            </trkpt>
            <trkpt lon="99.654815" lat="12.919686">
                <ele>102.037109</ele>
                <time>2006-02-26T04:15:02Z</time>
            </trkpt>
            <trkpt lon="99.654729" lat="12.919579">
                <ele>101.556396</ele>
                <time>2006-02-26T04:15:06Z</time>
            </trkpt>
            <trkpt lon="99.654558" lat="12.919257">
                <ele>97.711182</ele>
                <time>2006-02-26T04:15:14Z</time>
            </trkpt>
            <trkpt lon="99.654150" lat="12.919021">
                <ele>97.711182</ele>
                <time>2006-02-26T04:15:24Z</time>
            </trkpt>
            <trkpt lon="99.654107" lat="12.919042">
                <ele>97.711182</ele>
                <time>2006-02-26T04:15:25Z</time>
            </trkpt>
            <trkpt lon="99.653893" lat="12.919149">
                <ele>96.749878</ele>
                <time>2006-02-26T04:15:30Z</time>
            </trkpt>
            <trkpt lon="99.653528" lat="12.919536">
                <ele>96.269287</ele>
                <time>2006-02-26T04:15:43Z</time>
            </trkpt>
            <trkpt lon="99.653463" lat="12.919858">
                <ele>97.230469</ele>
                <time>2006-02-26T04:16:00Z</time>
            </trkpt>
            <trkpt lon="99.653485" lat="12.920115">
                <ele>99.633789</ele>
                <time>2006-02-26T04:16:18Z</time>
            </trkpt>
            <trkpt lon="99.653485" lat="12.920458">
                <ele>99.633789</ele>
                <time>2006-02-26T04:16:34Z</time>
            </trkpt>
            <trkpt lon="99.653399" lat="12.920458">
                <ele>96.749878</ele>
                <time>2006-02-26T04:16:38Z</time>
            </trkpt>
            <trkpt lon="99.653013" lat="12.920437">
                <ele>95.788452</ele>
                <time>2006-02-26T04:16:49Z</time>
            </trkpt>
            <trkpt lon="99.652669" lat="12.920458">
                <ele>95.788452</ele>
                <time>2006-02-26T04:16:59Z</time>
            </trkpt>
            <trkpt lon="99.652133" lat="12.920351">
                <ele>92.904541</ele>
                <time>2006-02-26T04:17:12Z</time>
            </trkpt>
            <trkpt lon="99.652026" lat="12.920330">
                <ele>92.423950</ele>
                <time>2006-02-26T04:17:14Z</time>
            </trkpt>
            <trkpt lon="99.651704" lat="12.920265">
                <ele>90.501343</ele>
                <time>2006-02-26T04:17:21Z</time>
            </trkpt>
            <trkpt lon="99.651532" lat="12.920158">
                <ele>89.059326</ele>
                <time>2006-02-26T04:17:25Z</time>
            </trkpt>
            <trkpt lon="99.651189" lat="12.920029">
                <ele>88.578735</ele>
                <time>2006-02-26T04:17:35Z</time>
            </trkpt>
            <trkpt lon="99.651103" lat="12.919986">
                <ele>88.578735</ele>
                <time>2006-02-26T04:17:38Z</time>
            </trkpt>
            <trkpt lon="99.650931" lat="12.920008">
                <ele>89.539917</ele>
                <time>2006-02-26T04:17:42Z</time>
            </trkpt>
            <trkpt lon="99.650760" lat="12.920051">
                <ele>90.020630</ele>
                <time>2006-02-26T04:17:46Z</time>
            </trkpt>
            <trkpt lon="99.650652" lat="12.920394">
                <ele>89.059326</ele>
                <time>2006-02-26T04:18:01Z</time>
            </trkpt>
            <trkpt lon="99.650567" lat="12.920802">
                <ele>89.059326</ele>
                <time>2006-02-26T04:18:25Z</time>
            </trkpt>
            <trkpt lon="99.650524" lat="12.921317">
                <ele>90.501343</ele>
                <time>2006-02-26T04:18:49Z</time>
            </trkpt>
            <trkpt lon="99.650288" lat="12.921767">
                <ele>93.865845</ele>
                <time>2006-02-26T04:19:13Z</time>
            </trkpt>
            <trkpt lon="99.649858" lat="12.921810">
                <ele>95.307739</ele>
                <time>2006-02-26T04:19:29Z</time>
            </trkpt>
            <trkpt lon="99.648957" lat="12.921896">
                <ele>93.385132</ele>
                <time>2006-02-26T04:19:52Z</time>
            </trkpt>
            <trkpt lon="99.648035" lat="12.921939">
                <ele>92.904541</ele>
                <time>2006-02-26T04:20:14Z</time>
            </trkpt>
            <trkpt lon="99.647906" lat="12.921896">
                <ele>91.943237</ele>
                <time>2006-02-26T04:20:17Z</time>
            </trkpt>
            <trkpt lon="99.647841" lat="12.921853">
                <ele>91.462524</ele>
                <time>2006-02-26T04:20:19Z</time>
            </trkpt>
            <trkpt lon="99.647241" lat="12.921338">
                <ele>88.578735</ele>
                <time>2006-02-26T04:20:36Z</time>
            </trkpt>
            <trkpt lon="99.646640" lat="12.921231">
                <ele>89.539917</ele>
                <time>2006-02-26T04:20:49Z</time>
            </trkpt>
            <trkpt lon="99.646339" lat="12.921360">
                <ele>90.501343</ele>
                <time>2006-02-26T04:21:02Z</time>
            </trkpt>
            <trkpt lon="99.646318" lat="12.921402">
                <ele>89.059326</ele>
                <time>2006-02-26T04:21:12Z</time>
            </trkpt>
            <trkpt lon="99.646103" lat="12.921424">
                <ele>89.539917</ele>
                <time>2006-02-26T04:21:27Z</time>
            </trkpt>
            <trkpt lon="99.645631" lat="12.921424">
                <ele>93.385132</ele>
                <time>2006-02-26T04:21:44Z</time>
            </trkpt>
            <trkpt lon="99.645352" lat="12.921445">
                <ele>94.827148</ele>
                <time>2006-02-26T04:21:52Z</time>
            </trkpt>
            <trkpt lon="99.645245" lat="12.921295">
                <ele>95.788452</ele>
                <time>2006-02-26T04:21:58Z</time>
            </trkpt>
            <trkpt lon="99.645224" lat="12.920716">
                <ele>92.904541</ele>
                <time>2006-02-26T04:22:16Z</time>
            </trkpt>
            <trkpt lon="99.645202" lat="12.920501">
                <ele>89.539917</ele>
                <time>2006-02-26T04:22:31Z</time>
            </trkpt>
            <trkpt lon="99.645181" lat="12.920437">
                <ele>89.059326</ele>
                <time>2006-02-26T04:22:52Z</time>
            </trkpt>
            <trkpt lon="99.645073" lat="12.920008">
                <ele>90.981934</ele>
                <time>2006-02-26T04:23:10Z</time>
            </trkpt>
            <trkpt lon="99.645073" lat="12.919407">
                <ele>90.501343</ele>
                <time>2006-02-26T04:23:29Z</time>
            </trkpt>
            <trkpt lon="99.645095" lat="12.919149">
                <ele>89.539917</ele>
                <time>2006-02-26T04:23:38Z</time>
            </trkpt>
            <trkpt lon="99.644601" lat="12.918999">
                <ele>88.578735</ele>
                <time>2006-02-26T04:23:58Z</time>
            </trkpt>
            <trkpt lon="99.643378" lat="12.919042">
                <ele>88.578735</ele>
                <time>2006-02-26T04:24:30Z</time>
            </trkpt>
            <trkpt lon="99.642348" lat="12.919235">
                <ele>89.059326</ele>
                <time>2006-02-26T04:25:00Z</time>
            </trkpt>
            <trkpt lon="99.641833" lat="12.919621">
                <ele>88.578735</ele>
                <time>2006-02-26T04:25:20Z</time>
            </trkpt>
            <trkpt lon="99.642177" lat="12.919471">
                <ele>88.578735</ele>
                <time>2006-02-26T04:25:35Z</time>
            </trkpt>
            <trkpt lon="99.642863" lat="12.918913">
                <ele>90.020630</ele>
                <time>2006-02-26T04:26:04Z</time>
            </trkpt>
            <trkpt lon="99.643357" lat="12.918913">
                <ele>90.020630</ele>
                <time>2006-02-26T04:26:19Z</time>
            </trkpt>
            <trkpt lon="99.644151" lat="12.918978">
                <ele>90.020630</ele>
                <time>2006-02-26T04:26:45Z</time>
            </trkpt>
            <trkpt lon="99.644859" lat="12.918999">
                <ele>89.539917</ele>
                <time>2006-02-26T04:27:08Z</time>
            </trkpt>
            <trkpt lon="99.645116" lat="12.919085">
                <ele>89.539917</ele>
                <time>2006-02-26T04:27:19Z</time>
            </trkpt>
            <trkpt lon="99.645116" lat="12.919106">
                <ele>89.059326</ele>
                <time>2006-02-26T04:27:32Z</time>
            </trkpt>
            <trkpt lon="99.645095" lat="12.919171">
                <ele>88.578735</ele>
                <time>2006-02-26T04:27:36Z</time>
            </trkpt>
            <trkpt lon="99.645052" lat="12.919428">
                <ele>89.539917</ele>
                <time>2006-02-26T04:27:53Z</time>
            </trkpt>
            <trkpt lon="99.644988" lat="12.919815">
                <ele>91.943237</ele>
                <time>2006-02-26T04:28:16Z</time>
            </trkpt>
            <trkpt lon="99.645095" lat="12.920330">
                <ele>92.423950</ele>
                <time>2006-02-26T04:28:31Z</time>
            </trkpt>
            <trkpt lon="99.645138" lat="12.920458">
                <ele>92.423950</ele>
                <time>2006-02-26T04:28:34Z</time>
            </trkpt>
            <trkpt lon="99.645202" lat="12.921360">
                <ele>92.423950</ele>
                <time>2006-02-26T04:28:50Z</time>
            </trkpt>
            <trkpt lon="99.645267" lat="12.921896">
                <ele>92.423950</ele>
                <time>2006-02-26T04:29:04Z</time>
            </trkpt>
            <trkpt lon="99.645159" lat="12.922454">
                <ele>92.904541</ele>
                <time>2006-02-26T04:29:27Z</time>
            </trkpt>
            <trkpt lon="99.645030" lat="12.922990">
                <ele>92.904541</ele>
                <time>2006-02-26T04:29:48Z</time>
            </trkpt>
            <trkpt lon="99.644902" lat="12.923849">
                <ele>92.423950</ele>
                <time>2006-02-26T04:30:15Z</time>
            </trkpt>
            <trkpt lon="99.644880" lat="12.923892">
                <ele>92.423950</ele>
                <time>2006-02-26T04:30:17Z</time>
            </trkpt>
            <trkpt lon="99.644730" lat="12.923870">
                <ele>92.423950</ele>
                <time>2006-02-26T04:30:31Z</time>
            </trkpt>
            <trkpt lon="99.644430" lat="12.923870">
                <ele>92.423950</ele>
                <time>2006-02-26T04:30:46Z</time>
            </trkpt>
            <trkpt lon="99.643893" lat="12.923999">
                <ele>92.423950</ele>
                <time>2006-02-26T04:31:06Z</time>
            </trkpt>
            <trkpt lon="99.643271" lat="12.924299">
                <ele>92.904541</ele>
                <time>2006-02-26T04:31:29Z</time>
            </trkpt>
            <trkpt lon="99.643142" lat="12.924299">
                <ele>92.904541</ele>
                <time>2006-02-26T04:31:51Z</time>
            </trkpt>
            <trkpt lon="99.643056" lat="12.924299">
                <ele>95.788452</ele>
                <time>2006-02-26T04:32:09Z</time>
            </trkpt>
            <trkpt lon="99.642863" lat="12.924385">
                <ele>96.269287</ele>
                <time>2006-02-26T04:32:23Z</time>
            </trkpt>
            <trkpt lon="99.642670" lat="12.924428">
                <ele>96.269287</ele>
                <time>2006-02-26T04:32:33Z</time>
            </trkpt>
            <trkpt lon="99.642456" lat="12.924879">
                <ele>96.269287</ele>
                <time>2006-02-26T04:32:53Z</time>
            </trkpt>
            <trkpt lon="99.642112" lat="12.925050">
                <ele>95.307739</ele>
                <time>2006-02-26T04:33:27Z</time>
            </trkpt>
            <trkpt lon="99.641619" lat="12.925222">
                <ele>94.827148</ele>
                <time>2006-02-26T04:33:48Z</time>
            </trkpt>
            <trkpt lon="99.641147" lat="12.925308">
                <ele>95.307739</ele>
                <time>2006-02-26T04:34:05Z</time>
            </trkpt>
            <trkpt lon="99.640954" lat="12.925007">
                <ele>95.307739</ele>
                <time>2006-02-26T04:34:17Z</time>
            </trkpt>
            <trkpt lon="99.640396" lat="12.924385">
                <ele>95.307739</ele>
                <time>2006-02-26T04:34:36Z</time>
            </trkpt>
            <trkpt lon="99.640245" lat="12.924235">
                <ele>95.307739</ele>
                <time>2006-02-26T04:34:41Z</time>
            </trkpt>
            <trkpt lon="99.639452" lat="12.923892">
                <ele>94.346558</ele>
                <time>2006-02-26T04:35:00Z</time>
            </trkpt>
            <trkpt lon="99.639044" lat="12.923806">
                <ele>94.346558</ele>
                <time>2006-02-26T04:35:12Z</time>
            </trkpt>
            <trkpt lon="99.638808" lat="12.923226">
                <ele>96.269287</ele>
                <time>2006-02-26T04:35:27Z</time>
            </trkpt>
            <trkpt lon="99.638400" lat="12.922347">
                <ele>96.269287</ele>
                <time>2006-02-26T04:35:47Z</time>
            </trkpt>
            <trkpt lon="99.638121" lat="12.921660">
                <ele>96.269287</ele>
                <time>2006-02-26T04:36:03Z</time>
            </trkpt>
            <trkpt lon="99.638014" lat="12.921553">
                <ele>96.269287</ele>
                <time>2006-02-26T04:36:17Z</time>
            </trkpt>
            <trkpt lon="99.637284" lat="12.921059">
                <ele>96.749878</ele>
                <time>2006-02-26T04:36:38Z</time>
            </trkpt>
            <trkpt lon="99.635847" lat="12.920308">
                <ele>96.749878</ele>
                <time>2006-02-26T04:37:11Z</time>
            </trkpt>
            <trkpt lon="99.634666" lat="12.919772">
                <ele>96.749878</ele>
                <time>2006-02-26T04:37:40Z</time>
            </trkpt>
            <trkpt lon="99.634559" lat="12.919707">
                <ele>96.749878</ele>
                <time>2006-02-26T04:37:45Z</time>
            </trkpt>
            <trkpt lon="99.634452" lat="12.919793">
                <ele>96.749878</ele>
                <time>2006-02-26T04:37:53Z</time>
            </trkpt>
            <trkpt lon="99.634173" lat="12.919858">
                <ele>96.749878</ele>
                <time>2006-02-26T04:38:08Z</time>
            </trkpt>
            <trkpt lon="99.634044" lat="12.919600">
                <ele>95.788452</ele>
                <time>2006-02-26T04:38:22Z</time>
            </trkpt>
            <trkpt lon="99.634044" lat="12.919407">
                <ele>94.346558</ele>
                <time>2006-02-26T04:38:35Z</time>
            </trkpt>
            <trkpt lon="99.634130" lat="12.919900">
                <ele>88.578735</ele>
                <time>2006-02-26T05:01:18Z</time>
            </trkpt>
            <trkpt lon="99.634151" lat="12.919943">
                <ele>88.578735</ele>
                <time>2006-02-26T05:01:19Z</time>
            </trkpt>
            <trkpt lon="99.633980" lat="12.920136">
                <ele>72.716919</ele>
                <time>2006-02-26T05:01:29Z</time>
            </trkpt>
            <trkpt lon="99.633701" lat="12.920201">
                <ele>76.081421</ele>
                <time>2006-02-26T05:01:47Z</time>
            </trkpt>
            <trkpt lon="99.633422" lat="12.920201">
                <ele>79.446045</ele>
                <time>2006-02-26T05:02:07Z</time>
            </trkpt>
            <trkpt lon="99.633079" lat="12.920158">
                <ele>84.733398</ele>
                <time>2006-02-26T05:02:31Z</time>
            </trkpt>
            <trkpt lon="99.632885" lat="12.920115">
                <ele>88.098022</ele>
                <time>2006-02-26T05:02:46Z</time>
            </trkpt>
            <trkpt lon="99.632585" lat="12.920051">
                <ele>92.904541</ele>
                <time>2006-02-26T05:03:09Z</time>
            </trkpt>
            <trkpt lon="99.632392" lat="12.920008">
                <ele>97.230469</ele>
                <time>2006-02-26T05:03:25Z</time>
            </trkpt>
            <trkpt lon="99.632092" lat="12.919965">
                <ele>99.633789</ele>
                <time>2006-02-26T05:03:43Z</time>
            </trkpt>
            <trkpt lon="99.631748" lat="12.919793">
                <ele>103.479004</ele>
                <time>2006-02-26T05:04:05Z</time>
            </trkpt>
            <trkpt lon="99.631512" lat="12.919385">
                <ele>106.363037</ele>
                <time>2006-02-26T05:04:22Z</time>
            </trkpt>
            <trkpt lon="99.631383" lat="12.919214">
                <ele>106.843628</ele>
                <time>2006-02-26T05:04:29Z</time>
            </trkpt>
            <trkpt lon="99.631212" lat="12.918913">
                <ele>107.805054</ele>
                <time>2006-02-26T05:04:42Z</time>
            </trkpt>
            <trkpt lon="99.630911" lat="12.918398">
                <ele>109.246948</ele>
                <time>2006-02-26T05:05:00Z</time>
            </trkpt>
            <trkpt lon="99.630611" lat="12.917905">
                <ele>110.208252</ele>
                <time>2006-02-26T05:05:16Z</time>
            </trkpt>
            <trkpt lon="99.630182" lat="12.917218">
                <ele>110.688843</ele>
                <time>2006-02-26T05:05:37Z</time>
            </trkpt>
            <trkpt lon="99.629796" lat="12.916639">
                <ele>110.688843</ele>
                <time>2006-02-26T05:05:55Z</time>
            </trkpt>
            <trkpt lon="99.629366" lat="12.915931">
                <ele>111.650269</ele>
                <time>2006-02-26T05:06:15Z</time>
            </trkpt>
            <trkpt lon="99.628894" lat="12.915158">
                <ele>112.611572</ele>
                <time>2006-02-26T05:06:36Z</time>
            </trkpt>
            <trkpt lon="99.628422" lat="12.914386">
                <ele>112.611572</ele>
                <time>2006-02-26T05:06:57Z</time>
            </trkpt>
            <trkpt lon="99.628186" lat="12.913871">
                <ele>113.092285</ele>
                <time>2006-02-26T05:07:12Z</time>
            </trkpt>
            <trkpt lon="99.628143" lat="12.913270">
                <ele>115.014893</ele>
                <time>2006-02-26T05:07:32Z</time>
            </trkpt>
            <trkpt lon="99.627907" lat="12.912498">
                <ele>111.169556</ele>
                <time>2006-02-26T05:07:51Z</time>
            </trkpt>
            <trkpt lon="99.628272" lat="12.911575">
                <ele>110.208252</ele>
                <time>2006-02-26T05:08:09Z</time>
            </trkpt>
            <trkpt lon="99.628637" lat="12.910631">
                <ele>109.246948</ele>
                <time>2006-02-26T05:08:28Z</time>
            </trkpt>
            <trkpt lon="99.628851" lat="12.910030">
                <ele>109.246948</ele>
                <time>2006-02-26T05:08:40Z</time>
            </trkpt>
            <trkpt lon="99.628830" lat="12.909794">
                <ele>110.208252</ele>
                <time>2006-02-26T05:08:45Z</time>
            </trkpt>
            <trkpt lon="99.628615" lat="12.909493">
                <ele>110.688843</ele>
                <time>2006-02-26T05:08:52Z</time>
            </trkpt>
            <trkpt lon="99.628594" lat="12.909386">
                <ele>110.208252</ele>
                <time>2006-02-26T05:08:54Z</time>
            </trkpt>
            <trkpt lon="99.628658" lat="12.909236">
                <ele>110.688843</ele>
                <time>2006-02-26T05:08:57Z</time>
            </trkpt>
            <trkpt lon="99.628744" lat="12.909129">
                <ele>110.688843</ele>
                <time>2006-02-26T05:08:59Z</time>
            </trkpt>
            <trkpt lon="99.629152" lat="12.908850">
                <ele>110.688843</ele>
                <time>2006-02-26T05:09:07Z</time>
            </trkpt>
            <trkpt lon="99.629302" lat="12.908077">
                <ele>106.843628</ele>
                <time>2006-02-26T05:09:21Z</time>
            </trkpt>
            <trkpt lon="99.629281" lat="12.907863">
                <ele>107.324341</ele>
                <time>2006-02-26T05:09:26Z</time>
            </trkpt>
            <trkpt lon="99.629216" lat="12.907648">
                <ele>109.246948</ele>
                <time>2006-02-26T05:09:42Z</time>
            </trkpt>
            <trkpt lon="99.629581" lat="12.907004">
                <ele>110.208252</ele>
                <time>2006-02-26T05:10:14Z</time>
            </trkpt>
            <trkpt lon="99.630139" lat="12.906361">
                <ele>110.688843</ele>
                <time>2006-02-26T05:10:41Z</time>
            </trkpt>
            <trkpt lon="99.630332" lat="12.906318">
                <ele>110.688843</ele>
                <time>2006-02-26T05:10:46Z</time>
            </trkpt>
            <trkpt lon="99.630589" lat="12.906146">
                <ele>110.688843</ele>
                <time>2006-02-26T05:10:53Z</time>
            </trkpt>
            <trkpt lon="99.630697" lat="12.906060">
                <ele>110.688843</ele>
                <time>2006-02-26T05:10:56Z</time>
            </trkpt>
            <trkpt lon="99.630976" lat="12.905931">
                <ele>110.688843</ele>
                <time>2006-02-26T05:11:01Z</time>
            </trkpt>
            <trkpt lon="99.631298" lat="12.905717">
                <ele>109.246948</ele>
                <time>2006-02-26T05:11:07Z</time>
            </trkpt>
            <trkpt lon="99.631727" lat="12.905052">
                <ele>105.882446</ele>
                <time>2006-02-26T05:11:19Z</time>
            </trkpt>
            <trkpt lon="99.632134" lat="12.904344">
                <ele>106.843628</ele>
                <time>2006-02-26T05:11:35Z</time>
            </trkpt>
            <trkpt lon="99.632456" lat="12.903700">
                <ele>106.363037</ele>
                <time>2006-02-26T05:11:53Z</time>
            </trkpt>
            <trkpt lon="99.632478" lat="12.903636">
                <ele>106.843628</ele>
                <time>2006-02-26T05:11:55Z</time>
            </trkpt>
            <trkpt lon="99.632821" lat="12.903550">
                <ele>105.401733</ele>
                <time>2006-02-26T05:12:06Z</time>
            </trkpt>
            <trkpt lon="99.633036" lat="12.903764">
                <ele>100.114502</ele>
                <time>2006-02-26T05:12:13Z</time>
            </trkpt>
            <trkpt lon="99.633014" lat="12.903829">
                <ele>99.633789</ele>
                <time>2006-02-26T05:12:14Z</time>
            </trkpt>
            <trkpt lon="99.632585" lat="12.904987">
                <ele>92.904541</ele>
                <time>2006-02-26T05:12:26Z</time>
            </trkpt>
            <trkpt lon="99.632564" lat="12.905095">
                <ele>92.423950</ele>
                <time>2006-02-26T05:12:27Z</time>
            </trkpt>
            <trkpt lon="99.632542" lat="12.905309">
                <ele>90.981934</ele>
                <time>2006-02-26T05:12:29Z</time>
            </trkpt>
            <trkpt lon="99.632585" lat="12.905717">
                <ele>89.539917</ele>
                <time>2006-02-26T05:12:33Z</time>
            </trkpt>
            <trkpt lon="99.633336" lat="12.906082">
                <ele>85.694580</ele>
                <time>2006-02-26T05:12:43Z</time>
            </trkpt>
            <trkpt lon="99.633422" lat="12.906103">
                <ele>85.213989</ele>
                <time>2006-02-26T05:12:44Z</time>
            </trkpt>
            <trkpt lon="99.634409" lat="12.906575">
                <ele>83.771973</ele>
                <time>2006-02-26T05:12:57Z</time>
            </trkpt>
            <trkpt lon="99.635332" lat="12.907305">
                <ele>77.042847</ele>
                <time>2006-02-26T05:13:11Z</time>
            </trkpt>
            <trkpt lon="99.636598" lat="12.908356">
                <ele>74.639526</ele>
                <time>2006-02-26T05:13:32Z</time>
            </trkpt>
            <trkpt lon="99.637520" lat="12.909193">
                <ele>67.910278</ele>
                <time>2006-02-26T05:13:46Z</time>
            </trkpt>
            <trkpt lon="99.638400" lat="12.910137">
                <ele>64.545654</ele>
                <time>2006-02-26T05:14:02Z</time>
            </trkpt>
            <trkpt lon="99.639194" lat="12.911146">
                <ele>60.219727</ele>
                <time>2006-02-26T05:14:19Z</time>
            </trkpt>
            <trkpt lon="99.639409" lat="12.911382">
                <ele>60.219727</ele>
                <time>2006-02-26T05:14:24Z</time>
            </trkpt>
            <trkpt lon="99.640245" lat="12.911639">
                <ele>58.777710</ele>
                <time>2006-02-26T05:14:40Z</time>
            </trkpt>
            <trkpt lon="99.641061" lat="12.911832">
                <ele>60.219727</ele>
                <time>2006-02-26T05:14:59Z</time>
            </trkpt>
            <trkpt lon="99.641082" lat="12.911832">
                <ele>60.219727</ele>
                <time>2006-02-26T05:15:00Z</time>
            </trkpt>
            <trkpt lon="99.641168" lat="12.911725">
                <ele>61.661743</ele>
                <time>2006-02-26T05:15:14Z</time>
            </trkpt>
            <trkpt lon="99.641168" lat="12.911725">
                <ele>63.103638</ele>
                <time>2006-02-26T05:15:21Z</time>
            </trkpt>
            <trkpt lon="99.641469" lat="12.911446">
                <ele>65.507080</ele>
                <time>2006-02-26T05:15:38Z</time>
            </trkpt>
            <trkpt lon="99.641984" lat="12.910738">
                <ele>65.026367</ele>
                <time>2006-02-26T05:16:00Z</time>
            </trkpt>
            <trkpt lon="99.642863" lat="12.909880">
                <ele>65.987671</ele>
                <time>2006-02-26T05:16:26Z</time>
            </trkpt>
            <trkpt lon="99.644022" lat="12.909043">
                <ele>65.987671</ele>
                <time>2006-02-26T05:16:58Z</time>
            </trkpt>
            <trkpt lon="99.645245" lat="12.908163">
                <ele>65.987671</ele>
                <time>2006-02-26T05:17:25Z</time>
            </trkpt>
            <trkpt lon="99.645610" lat="12.908077">
                <ele>65.987671</ele>
                <time>2006-02-26T05:17:28Z</time>
            </trkpt>
            <trkpt lon="99.645653" lat="12.907991">
                <ele>65.987671</ele>
                <time>2006-02-26T05:17:31Z</time>
            </trkpt>
            <trkpt lon="99.646232" lat="12.907562">
                <ele>65.987671</ele>
                <time>2006-02-26T05:17:46Z</time>
            </trkpt>
            <trkpt lon="99.647198" lat="12.906919">
                <ele>66.948975</ele>
                <time>2006-02-26T05:18:08Z</time>
            </trkpt>
            <trkpt lon="99.648228" lat="12.906597">
                <ele>70.313477</ele>
                <time>2006-02-26T05:18:28Z</time>
            </trkpt>
            <trkpt lon="99.649236" lat="12.906532">
                <ele>70.794189</ele>
                <time>2006-02-26T05:18:47Z</time>
            </trkpt>
            <trkpt lon="99.650524" lat="12.906511">
                <ele>68.390869</ele>
                <time>2006-02-26T05:19:08Z</time>
            </trkpt>
            <trkpt lon="99.651446" lat="12.906704">
                <ele>66.468262</ele>
                <time>2006-02-26T05:19:24Z</time>
            </trkpt>
            <trkpt lon="99.651725" lat="12.906854">
                <ele>65.987671</ele>
                <time>2006-02-26T05:19:29Z</time>
            </trkpt>
            <trkpt lon="99.652605" lat="12.907755">
                <ele>65.026367</ele>
                <time>2006-02-26T05:19:48Z</time>
            </trkpt>
            <trkpt lon="99.653871" lat="12.908399">
                <ele>64.065063</ele>
                <time>2006-02-26T05:20:07Z</time>
            </trkpt>
            <trkpt lon="99.654965" lat="12.908850">
                <ele>63.584351</ele>
                <time>2006-02-26T05:20:25Z</time>
            </trkpt>
            <trkpt lon="99.656060" lat="12.909300">
                <ele>64.545654</ele>
                <time>2006-02-26T05:20:45Z</time>
            </trkpt>
            <trkpt lon="99.656897" lat="12.909665">
                <ele>65.987671</ele>
                <time>2006-02-26T05:21:04Z</time>
            </trkpt>
            <trkpt lon="99.657669" lat="12.909987">
                <ele>69.352295</ele>
                <time>2006-02-26T05:21:25Z</time>
            </trkpt>
            <trkpt lon="99.658313" lat="12.910266">
                <ele>72.716919</ele>
                <time>2006-02-26T05:21:44Z</time>
            </trkpt>
            <trkpt lon="99.658935" lat="12.910566">
                <ele>76.081421</ele>
                <time>2006-02-26T05:22:07Z</time>
            </trkpt>
            <trkpt lon="99.659536" lat="12.910802">
                <ele>76.562134</ele>
                <time>2006-02-26T05:22:24Z</time>
            </trkpt>
            <trkpt lon="99.660566" lat="12.911232">
                <ele>73.197632</ele>
                <time>2006-02-26T05:22:42Z</time>
            </trkpt>
            <trkpt lon="99.661939" lat="12.911789">
                <ele>72.716919</ele>
                <time>2006-02-26T05:23:04Z</time>
            </trkpt>
            <trkpt lon="99.662690" lat="12.912025">
                <ele>72.236206</ele>
                <time>2006-02-26T05:23:16Z</time>
            </trkpt>
            <trkpt lon="99.664128" lat="12.912025">
                <ele>71.755493</ele>
                <time>2006-02-26T05:23:41Z</time>
            </trkpt>
            <trkpt lon="99.665201" lat="12.911768">
                <ele>75.600830</ele>
                <time>2006-02-26T05:24:00Z</time>
            </trkpt>
            <trkpt lon="99.666338" lat="12.911360">
                <ele>75.600830</ele>
                <time>2006-02-26T05:24:23Z</time>
            </trkpt>
            <trkpt lon="99.667540" lat="12.911038">
                <ele>75.120239</ele>
                <time>2006-02-26T05:24:47Z</time>
            </trkpt>
            <trkpt lon="99.668419" lat="12.911060">
                <ele>75.600830</ele>
                <time>2006-02-26T05:25:04Z</time>
            </trkpt>
            <trkpt lon="99.669406" lat="12.911468">
                <ele>78.484741</ele>
                <time>2006-02-26T05:25:27Z</time>
            </trkpt>
            <trkpt lon="99.669921" lat="12.911618">
                <ele>78.484741</ele>
                <time>2006-02-26T05:25:38Z</time>
            </trkpt>
            <trkpt lon="99.670694" lat="12.911489">
                <ele>80.888184</ele>
                <time>2006-02-26T05:25:57Z</time>
            </trkpt>
            <trkpt lon="99.671381" lat="12.911146">
                <ele>80.888184</ele>
                <time>2006-02-26T05:26:22Z</time>
            </trkpt>
            <trkpt lon="99.671853" lat="12.910738">
                <ele>83.771973</ele>
                <time>2006-02-26T05:26:41Z</time>
            </trkpt>
            <trkpt lon="99.672110" lat="12.910416">
                <ele>84.733398</ele>
                <time>2006-02-26T05:26:58Z</time>
            </trkpt>
            <trkpt lon="99.672217" lat="12.910223">
                <ele>91.462524</ele>
                <time>2006-02-26T05:27:25Z</time>
            </trkpt>
            <trkpt lon="99.672453" lat="12.909901">
                <ele>90.501343</ele>
                <time>2006-02-26T05:27:34Z</time>
            </trkpt>
            <trkpt lon="99.673355" lat="12.909408">
                <ele>88.098022</ele>
                <time>2006-02-26T05:27:51Z</time>
            </trkpt>
            <trkpt lon="99.674492" lat="12.909021">
                <ele>89.539917</ele>
                <time>2006-02-26T05:28:14Z</time>
            </trkpt>
            <trkpt lon="99.675543" lat="12.908721">
                <ele>91.943237</ele>
                <time>2006-02-26T05:28:39Z</time>
            </trkpt>
            <trkpt lon="99.676316" lat="12.908485">
                <ele>95.788452</ele>
                <time>2006-02-26T05:29:01Z</time>
            </trkpt>
            <trkpt lon="99.677002" lat="12.908227">
                <ele>97.230469</ele>
                <time>2006-02-26T05:29:23Z</time>
            </trkpt>
            <trkpt lon="99.677732" lat="12.908034">
                <ele>99.153076</ele>
                <time>2006-02-26T05:29:44Z</time>
            </trkpt>
            <trkpt lon="99.678590" lat="12.907927">
                <ele>99.153076</ele>
                <time>2006-02-26T05:30:09Z</time>
            </trkpt>
            <trkpt lon="99.679320" lat="12.907948">
                <ele>100.595093</ele>
                <time>2006-02-26T05:30:33Z</time>
            </trkpt>
            <trkpt lon="99.679792" lat="12.908099">
                <ele>104.440430</ele>
                <time>2006-02-26T05:30:51Z</time>
            </trkpt>
            <trkpt lon="99.680200" lat="12.908313">
                <ele>108.285645</ele>
                <time>2006-02-26T05:31:09Z</time>
            </trkpt>
            <trkpt lon="99.680672" lat="12.908571">
                <ele>114.053589</ele>
                <time>2006-02-26T05:31:29Z</time>
            </trkpt>
            <trkpt lon="99.681208" lat="12.908764">
                <ele>114.534180</ele>
                <time>2006-02-26T05:31:46Z</time>
            </trkpt>
            <trkpt lon="99.681509" lat="12.908571">
                <ele>115.014893</ele>
                <time>2006-02-26T05:31:56Z</time>
            </trkpt>
            <trkpt lon="99.681981" lat="12.907970">
                <ele>115.014893</ele>
                <time>2006-02-26T05:32:14Z</time>
            </trkpt>
            <trkpt lon="99.682045" lat="12.907906">
                <ele>115.014893</ele>
                <time>2006-02-26T05:32:16Z</time>
            </trkpt>
            <trkpt lon="99.682989" lat="12.907498">
                <ele>110.208252</ele>
                <time>2006-02-26T05:32:29Z</time>
            </trkpt>
            <trkpt lon="99.683204" lat="12.907348">
                <ele>109.246948</ele>
                <time>2006-02-26T05:32:32Z</time>
            </trkpt>
            <trkpt lon="99.683676" lat="12.906704">
                <ele>108.766235</ele>
                <time>2006-02-26T05:32:43Z</time>
            </trkpt>
            <trkpt lon="99.683740" lat="12.906489">
                <ele>108.766235</ele>
                <time>2006-02-26T05:32:46Z</time>
            </trkpt>
            <trkpt lon="99.683762" lat="12.906232">
                <ele>107.805054</ele>
                <time>2006-02-26T05:32:50Z</time>
            </trkpt>
            <trkpt lon="99.683568" lat="12.905331">
                <ele>107.805054</ele>
                <time>2006-02-26T05:33:05Z</time>
            </trkpt>
            <trkpt lon="99.683139" lat="12.904623">
                <ele>107.805054</ele>
                <time>2006-02-26T05:33:20Z</time>
            </trkpt>
            <trkpt lon="99.683075" lat="12.904558">
                <ele>107.805054</ele>
                <time>2006-02-26T05:33:22Z</time>
            </trkpt>
            <trkpt lon="99.682989" lat="12.904365">
                <ele>107.324341</ele>
                <time>2006-02-26T05:33:26Z</time>
            </trkpt>
            <trkpt lon="99.682968" lat="12.903035">
                <ele>107.324341</ele>
                <time>2006-02-26T05:33:50Z</time>
            </trkpt>
            <trkpt lon="99.682989" lat="12.902884">
                <ele>107.324341</ele>
                <time>2006-02-26T05:33:53Z</time>
            </trkpt>
            <trkpt lon="99.682732" lat="12.902756">
                <ele>107.805054</ele>
                <time>2006-02-26T05:33:59Z</time>
            </trkpt>
            <trkpt lon="99.681959" lat="12.902198">
                <ele>107.324341</ele>
                <time>2006-02-26T05:34:19Z</time>
            </trkpt>
            <trkpt lon="99.681702" lat="12.901962">
                <ele>107.805054</ele>
                <time>2006-02-26T05:34:27Z</time>
            </trkpt>
            <trkpt lon="99.681423" lat="12.901297">
                <ele>106.843628</ele>
                <time>2006-02-26T05:34:45Z</time>
            </trkpt>
            <trkpt lon="99.681380" lat="12.901189">
                <ele>106.843628</ele>
                <time>2006-02-26T05:34:48Z</time>
            </trkpt>
            <trkpt lon="99.681187" lat="12.901018">
                <ele>106.843628</ele>
                <time>2006-02-26T05:34:53Z</time>
            </trkpt>
            <trkpt lon="99.681165" lat="12.900825">
                <ele>107.324341</ele>
                <time>2006-02-26T05:34:58Z</time>
            </trkpt>
            <trkpt lon="99.681251" lat="12.900610">
                <ele>107.324341</ele>
                <time>2006-02-26T05:35:04Z</time>
            </trkpt>
            <trkpt lon="99.681380" lat="12.900653">
                <ele>105.882446</ele>
                <time>2006-02-26T05:35:09Z</time>
            </trkpt>
            <trkpt lon="99.681530" lat="12.900739">
                <ele>103.959717</ele>
                <time>2006-02-26T05:35:19Z</time>
            </trkpt>
            <trkpt lon="99.681680" lat="12.900567">
                <ele>103.479004</ele>
                <time>2006-02-26T05:35:28Z</time>
            </trkpt>
            <trkpt lon="99.681444" lat="12.900417">
                <ele>102.998291</ele>
                <time>2006-02-26T05:35:43Z</time>
            </trkpt>
            <trkpt lon="99.681380" lat="12.900288">
                <ele>103.479004</ele>
                <time>2006-02-26T05:35:51Z</time>
            </trkpt>
            <trkpt lon="99.680758" lat="12.900095">
                <ele>103.959717</ele>
                <time>2006-02-26T05:36:09Z</time>
            </trkpt>
            <trkpt lon="99.680607" lat="12.899988">
                <ele>105.882446</ele>
                <time>2006-02-26T05:36:20Z</time>
            </trkpt>
            <trkpt lon="99.680500" lat="12.899923">
                <ele>106.843628</ele>
                <time>2006-02-26T05:36:36Z</time>
            </trkpt>
            <trkpt lon="99.680135" lat="12.899730">
                <ele>106.363037</ele>
                <time>2006-02-26T05:36:52Z</time>
            </trkpt>
            <trkpt lon="99.680114" lat="12.899687">
                <ele>110.688843</ele>
                <time>2006-02-26T05:37:08Z</time>
            </trkpt>
            <trkpt lon="99.680114" lat="12.899687">
                <ele>109.727661</ele>
                <time>2006-02-26T05:38:50Z</time>
            </trkpt>
            <trkpt lon="99.680157" lat="12.899666">
                <ele>109.727661</ele>
                <time>2006-02-26T05:39:12Z</time>
            </trkpt>
            <trkpt lon="99.680114" lat="12.899687">
                <ele>110.688843</ele>
                <time>2006-02-26T05:39:48Z</time>
            </trkpt>
            <trkpt lon="99.680071" lat="12.899644">
                <ele>95.788452</ele>
                <time>2006-02-26T05:42:05Z</time>
            </trkpt>
            <trkpt lon="99.680135" lat="12.899644">
                <ele>99.633789</ele>
                <time>2006-02-26T05:42:34Z</time>
            </trkpt>
            <trkpt lon="99.680178" lat="12.899687">
                <ele>100.595093</ele>
                <time>2006-02-26T05:42:42Z</time>
            </trkpt>
            <trkpt lon="99.680371" lat="12.899816">
                <ele>99.153076</ele>
                <time>2006-02-26T05:43:00Z</time>
            </trkpt>
            <trkpt lon="99.680457" lat="12.899880">
                <ele>99.633789</ele>
                <time>2006-02-26T05:43:07Z</time>
            </trkpt>
        </trkseg>
    </trk>
</gpx>